createdAt,value
2022-10-04T00:08:26.375Z,0.85
2022-10-04T00:11:23.956Z,1.05
2022-10-04T00:25:28.601Z,2.58
2022-10-04T00:31:38.841Z,1.70
2022-10-04T00:34:39.222Z,1.15
2022-10-04T00:40:26.019Z,0.90
2022-10-04T00:45:47.234Z,0.80
2022-10-04T00:54:23.202Z,1.35
2022-10-04T00:59:41.366Z,1.27
2022-10-04T01:02:16.492Z,1.52
2022-10-04T01:04:53.073Z,2.10
2022-10-04T01:10:14.068Z,0.80
2022-10-04T01:13:18.181Z,0.95
2022-10-04T01:24:23.685Z,1.85
2022-10-04T01:26:50.959Z,1.52
2022-10-04T01:32:09.628Z,2.50
2022-10-04T01:34:41.027Z,1.88
2022-10-04T01:39:54.732Z,4.22
2022-10-04T01:48:01.665Z,3.10
2022-10-04T01:53:26.868Z,1.13
2022-10-04T01:59:33.834Z,1.67
2022-10-04T02:16:40.361Z,2.50
2022-10-04T02:19:09.546Z,3.45
2022-10-04T02:21:39.224Z,1.48
2022-10-04T02:24:14.483Z,5.55
2022-10-04T02:29:24.496Z,2.15
2022-10-04T02:37:40.826Z,3.50
2022-10-04T02:40:34.260Z,3.35
2022-10-04T02:43:11.446Z,0.90
2022-10-04T02:51:28.716Z,1.30
2022-10-04T03:03:51.666Z,1.85
2022-10-04T03:51:50.586Z,1.58
2022-10-04T04:10:51.533Z,3.15
2022-10-04T04:13:30.031Z,1.20
2022-10-04T04:16:12.115Z,1.48
2022-10-04T04:18:43.727Z,2.05
2022-10-04T04:21:19.177Z,1.00
2022-10-04T04:23:52.786Z,0.85
2022-10-04T04:26:27.819Z,2.75
2022-10-04T04:28:58.977Z,7.30
2022-10-04T04:31:34.978Z,6.55
2022-10-04T04:34:04.272Z,6.60
2022-10-04T04:36:38.684Z,6.25
2022-10-04T04:39:37.810Z,2.78
2022-10-04T04:42:23.873Z,2.35
2022-10-04T04:44:53.524Z,3.40
2022-10-04T04:50:18.222Z,3.67
2022-10-04T04:52:52.056Z,2.97
2022-10-04T04:55:22.671Z,5.50
2022-10-04T05:00:38.794Z,6.22
2022-10-04T05:03:13.546Z,1.70
2022-10-04T05:05:48.018Z,2.50
2022-10-04T05:08:18.915Z,2.38
2022-10-04T05:10:55.566Z,2.60
2022-10-04T05:13:26.216Z,3.13
2022-10-04T05:15:56.057Z,4.10
2022-10-04T05:18:30.442Z,3.72
2022-10-04T05:21:03.566Z,1.98
2022-10-04T05:23:30.398Z,3.60
2022-10-04T05:26:04.333Z,2.85
2022-10-04T05:28:32.841Z,2.70
2022-10-04T05:31:19.245Z,2.72
2022-10-04T05:33:48.303Z,1.00
2022-10-04T05:36:39.067Z,1.10
2022-10-04T05:39:13.121Z,0.90
2022-10-04T05:41:52.645Z,0.77
2022-10-04T05:44:32.101Z,1.10
2022-10-04T05:47:01.742Z,0.80
2022-10-04T05:49:33.583Z,0.90
2022-10-04T05:52:03.635Z,0.80
2022-10-04T05:54:35.834Z,1.10
2022-10-04T05:57:37.586Z,1.98
2022-10-04T06:00:13.874Z,0.80
2022-10-04T06:03:07.608Z,1.08
2022-10-04T06:08:49.270Z,1.48
2022-10-04T06:11:32.087Z,2.33
2022-10-04T06:14:34.952Z,1.88
2022-10-04T06:17:24.428Z,0.90
2022-10-04T06:20:16.562Z,1.23
2022-10-04T06:22:45.675Z,1.83
2022-10-04T06:25:20.044Z,1.00
2022-10-04T06:27:54.154Z,0.93
2022-10-04T06:30:30.323Z,1.55
2022-10-04T06:33:32.700Z,1.25
2022-10-04T06:36:19.771Z,0.73
2022-10-04T06:39:06.005Z,0.63
2022-10-04T06:41:49.365Z,0.63
2022-10-04T06:44:44.282Z,0.68
2022-10-04T06:50:45.568Z,1.20
2022-10-04T06:59:43.558Z,0.80
2022-10-04T07:02:16.202Z,0.70
2022-10-04T07:05:07.539Z,0.90
2022-10-04T07:14:13.998Z,1.20
2022-10-04T07:16:48.331Z,0.80
2022-10-04T07:19:34.052Z,1.40
2022-10-04T07:22:20.676Z,1.20
2022-10-04T07:25:08.351Z,1.08
2022-10-04T07:54:04.177Z,0.90
2022-10-04T10:34:00.626Z,0.60
2022-10-04T12:16:46.492Z,0.68
